createdAt,value
2022-08-17T00:02:15.312Z,97939.13
2022-08-17T00:04:52.473Z,97945.31
2022-08-17T00:07:22.222Z,97940.91
2022-08-17T00:09:48.784Z,97944.63
2022-08-17T00:12:40.764Z,97934.91
2022-08-17T00:15:02.509Z,97941.28
2022-08-17T00:17:32.104Z,97941.63
2022-08-17T00:20:00.215Z,97933.59
2022-08-17T00:22:33.253Z,97941.88
2022-08-17T00:25:02.893Z,97942.25
2022-08-17T00:27:29.331Z,97935.78
2022-08-17T00:29:55.795Z,97943.97
2022-08-17T00:33:12.120Z,97939.44
2022-08-17T00:35:11.235Z,97930.72
2022-08-17T00:37:37.718Z,97936.94
2022-08-17T00:40:05.030Z,97935.91
2022-08-17T00:42:31.873Z,97930.25
2022-08-17T00:44:59.223Z,97934.78
2022-08-17T00:47:26.460Z,97936.78
2022-08-17T00:49:53.150Z,97938.19
2022-08-17T00:52:23.539Z,97935.97
2022-08-17T00:54:53.901Z,97937.19
2022-08-17T00:57:33.130Z,97937.31
2022-08-17T01:00:08.343Z,97932.16
2022-08-17T01:02:42.764Z,97937.56
2022-08-17T01:05:19.050Z,97930.91
2022-08-17T01:07:47.678Z,97933.47
2022-08-17T01:11:00.038Z,97935.88
2022-08-17T01:13:03.838Z,97937.94
2022-08-17T01:15:34.832Z,97928.50
2022-08-17T01:18:01.893Z,97929.78
2022-08-17T01:20:28.440Z,97935.19
2022-08-17T01:22:56.391Z,97941.38
2022-08-17T01:25:22.931Z,97939.09
2022-08-17T01:27:49.894Z,97937.25
2022-08-17T01:30:58.377Z,97940.31
2022-08-17T01:33:04.329Z,97947.00
2022-08-17T01:35:30.919Z,97948.38
2022-08-17T01:37:57.438Z,97932.78
2022-08-17T01:40:39.860Z,97940.75
2022-08-17T01:43:16.106Z,97938.06
2022-08-17T01:45:49.331Z,97938.31
2022-08-17T01:48:32.673Z,97939.53
2022-08-17T01:50:59.523Z,97932.78
2022-08-17T01:53:34.866Z,97924.81
2022-08-17T01:56:08.238Z,97920.31
2022-08-17T01:58:36.052Z,97938.28
2022-08-17T02:01:02.846Z,97927.75
2022-08-17T02:03:30.256Z,97931.88
2022-08-17T02:05:56.910Z,97934.09
2022-08-17T02:08:38.653Z,97928.09
2022-08-17T02:11:12.089Z,97923.38
2022-08-17T02:13:39.021Z,97928.03
2022-08-17T02:16:06.000Z,97915.47
2022-08-17T02:18:35.797Z,97917.25
2022-08-17T02:21:02.490Z,97927.16
2022-08-17T02:23:32.364Z,97925.09
2022-08-17T02:26:00.561Z,97913.00
2022-08-17T02:28:28.626Z,97922.34
2022-08-17T02:31:01.843Z,97920.88
2022-08-17T02:33:42.030Z,97920.22
2022-08-17T02:36:12.344Z,97922.22
2022-08-17T02:38:40.717Z,97922.22
2022-08-17T02:41:07.639Z,97920.63
2022-08-17T02:43:36.712Z,97923.44
2022-08-17T02:46:03.325Z,97919.78
2022-08-17T02:48:31.063Z,97920.28
2022-08-17T02:50:58.280Z,97917.19
2022-08-17T02:53:25.624Z,97922.91
2022-08-17T02:55:52.706Z,97915.19
2022-08-17T02:58:34.404Z,97924.81
2022-08-17T03:01:06.338Z,97922.13
2022-08-17T03:03:33.478Z,97921.03
2022-08-17T03:06:00.510Z,97917.34
2022-08-17T03:08:27.210Z,97926.94
2022-08-17T03:10:53.934Z,97927.78
2022-08-17T03:13:20.689Z,97922.88
2022-08-17T03:15:48.946Z,97919.75
2022-08-17T03:18:25.409Z,97924.66
2022-08-17T03:20:59.199Z,97923.00
2022-08-17T03:23:27.525Z,97920.50
2022-08-17T03:25:56.795Z,97917.53
2022-08-17T03:28:23.857Z,97921.59
2022-08-17T03:30:51.549Z,97919.75
2022-08-17T03:33:19.200Z,97928.06
2022-08-17T03:35:46.481Z,97932.66
2022-08-17T03:38:15.826Z,97931.47
2022-08-17T03:40:58.156Z,97934.97
2022-08-17T03:43:29.480Z,97926.47
2022-08-17T03:46:33.993Z,97927.84
2022-08-17T03:49:22.859Z,97929.81
2022-08-17T03:52:07.773Z,97924.38
2022-08-17T03:54:52.735Z,97927.91
2022-08-17T03:57:19.534Z,97924.38
2022-08-17T03:59:46.284Z,97925.41
2022-08-17T04:02:24.264Z,97916.53
2022-08-17T04:04:52.105Z,97916.97
2022-08-17T04:07:20.831Z,97924.47
2022-08-17T04:09:47.717Z,97927.22
2022-08-17T04:12:16.496Z,97935.06
2022-08-17T04:14:53.187Z,97935.88
2022-08-17T04:17:26.511Z,97928.78
2022-08-17T04:19:55.862Z,97923.88
2022-08-17T04:22:32.790Z,97923.88
2022-08-17T04:25:18.258Z,97923.03
2022-08-17T04:27:48.686Z,97923.66
2022-08-17T04:30:15.547Z,97934.38
2022-08-17T04:33:08.751Z,97929.28
2022-08-17T04:35:44.930Z,97929.38
2022-08-17T04:38:14.579Z,97926.53
2022-08-17T04:40:59.663Z,97927.91
2022-08-17T04:43:30.991Z,97918.72
2022-08-17T04:46:09.627Z,97921.72
2022-08-17T04:48:42.664Z,97915.84
2022-08-17T04:51:21.942Z,97918.03
2022-08-17T04:53:54.539Z,97916.53
2022-08-17T04:56:22.669Z,97923.75
2022-08-17T04:58:51.932Z,97930.25
2022-08-17T05:01:23.129Z,97930.81
2022-08-17T05:03:56.162Z,97930.66
2022-08-17T05:06:23.587Z,97927.88
2022-08-17T05:08:50.095Z,97925.69
2022-08-17T05:11:16.791Z,97934.81
2022-08-17T05:13:43.559Z,97932.91
2022-08-17T05:16:10.651Z,97939.59
2022-08-17T05:18:38.716Z,97947.06
2022-08-17T05:21:06.620Z,97947.63
2022-08-17T05:23:41.734Z,97946.97
2022-08-17T05:26:23.154Z,97949.50
2022-08-17T05:28:53.522Z,97945.22
2022-08-17T05:31:21.021Z,97941.34
2022-08-17T05:33:47.746Z,97954.50
2022-08-17T05:36:42.721Z,97953.91
2022-08-17T05:39:03.041Z,97951.16
2022-08-17T05:41:29.588Z,97958.41
2022-08-17T05:43:56.633Z,97948.34
2022-08-17T05:46:28.706Z,97947.19
2022-08-17T05:49:09.840Z,97936.44
2022-08-17T05:52:10.012Z,97930.25
2022-08-17T05:54:51.693Z,97929.66
2022-08-17T05:57:43.521Z,97938.34
2022-08-17T06:00:42.005Z,97936.81
2022-08-17T06:03:27.299Z,97935.09
2022-08-17T06:06:15.415Z,97927.41
2022-08-17T06:08:51.689Z,97935.22
2022-08-17T06:11:44.492Z,97935.88
2022-08-17T06:14:38.555Z,97941.16
2022-08-17T06:17:11.399Z,97938.28
2022-08-17T06:19:37.788Z,97943.28
2022-08-17T06:22:06.167Z,97946.38
2022-08-17T06:25:01.159Z,97945.84
2022-08-17T06:28:04.762Z,97948.06
2022-08-17T06:30:58.487Z,97945.56
2022-08-17T06:33:35.456Z,97933.75
2022-08-17T06:36:26.362Z,97929.41
2022-08-17T06:39:04.822Z,97936.75
2022-08-17T06:41:53.696Z,97938.75
2022-08-17T06:44:50.234Z,97935.44
2022-08-17T06:47:29.287Z,97938.38
2022-08-17T06:50:15.435Z,97947.06
2022-08-17T06:52:56.356Z,97936.00
2022-08-17T06:55:37.831Z,97931.91
2022-08-17T06:58:15.849Z,97934.53
2022-08-17T07:00:47.233Z,97946.03
2022-08-17T07:03:20.875Z,97947.00
2022-08-17T07:06:06.368Z,97942.72
2022-08-17T07:08:51.193Z,97935.31
2022-08-17T07:11:26.026Z,97939.25
2022-08-17T07:14:00.809Z,97942.69
2022-08-17T07:16:41.197Z,97950.19
2022-08-17T07:19:11.028Z,97946.63
2022-08-17T07:21:40.861Z,97948.84
2022-08-17T07:24:29.176Z,97952.44
2022-08-17T07:27:14.289Z,97947.50
2022-08-17T07:29:46.309Z,97945.44
2022-08-17T07:32:18.448Z,97947.38
2022-08-17T07:35:04.556Z,97946.69
2022-08-17T07:37:33.299Z,97938.13
2022-08-17T07:40:15.832Z,97937.50
2022-08-17T07:43:00.193Z,97939.22
2022-08-17T07:45:45.487Z,97927.28
2022-08-17T07:48:21.904Z,97942.59
2022-08-17T07:50:50.815Z,97949.13
2022-08-17T07:53:20.952Z,97949.69
2022-08-17T07:55:47.742Z,97960.00
2022-08-17T07:58:20.044Z,97955.41
2022-08-17T08:01:02.045Z,97954.66
2022-08-17T08:03:32.019Z,97954.06
2022-08-17T08:06:01.982Z,97954.81
2022-08-17T08:08:31.009Z,97962.38
2022-08-17T08:11:05.437Z,97964.31
2022-08-17T08:13:33.057Z,97963.72
2022-08-17T08:16:24.155Z,97967.63
2022-08-17T08:18:56.934Z,97970.34
2022-08-17T08:21:55.154Z,97980.78
2022-08-17T08:24:30.778Z,97975.97
2022-08-17T08:27:31.345Z,97984.91
2022-08-17T08:30:09.009Z,97977.81
2022-08-17T08:33:27.028Z,97991.38
2022-08-17T08:37:14.145Z,98003.03
2022-08-17T08:39:19.318Z,98006.00
2022-08-17T08:42:10.219Z,98008.41
2022-08-17T08:45:00.113Z,98004.69
2022-08-17T08:47:53.550Z,97997.59
2022-08-17T08:50:48.821Z,97998.13
2022-08-17T08:53:21.836Z,98015.66
2022-08-17T08:55:54.795Z,98013.44
2022-08-17T08:58:43.555Z,98008.59
2022-08-17T09:01:47.327Z,98002.97
2022-08-17T09:04:25.183Z,98010.53
2022-08-17T09:07:07.285Z,98006.16
2022-08-17T09:09:59.013Z,98000.63
2022-08-17T09:12:48.636Z,98001.59
2022-08-17T09:15:25.587Z,98010.53
2022-08-17T09:18:30.407Z,98017.22
2022-08-17T09:20:55.752Z,98023.78
2022-08-17T09:23:43.740Z,98028.78
2022-08-17T09:26:21.002Z,98035.50
2022-08-17T09:28:51.028Z,98023.66
2022-08-17T09:31:47.054Z,98029.44
2022-08-17T09:34:19.747Z,98015.84
2022-08-17T09:37:03.800Z,98011.84
2022-08-17T09:39:38.905Z,98016.09
2022-08-17T09:42:31.601Z,98006.09
2022-08-17T09:45:02.752Z,98002.41
2022-08-17T09:47:42.082Z,98011.28
2022-08-17T09:50:20.130Z,97994.72
2022-08-17T09:53:07.591Z,97998.53
2022-08-17T09:56:15.153Z,98007.91
2022-08-17T09:59:08.948Z,98011.63
2022-08-17T10:01:45.963Z,98013.25
2022-08-17T10:04:29.868Z,98016.88
2022-08-17T10:07:52.581Z,98012.91
2022-08-17T10:10:25.680Z,98014.41
2022-08-17T10:13:03.971Z,98024.22
2022-08-17T10:15:53.679Z,98013.03
2022-08-17T10:18:46.134Z,98018.78
2022-08-17T10:21:38.269Z,98008.16
2022-08-17T10:25:23.089Z,98019.28
2022-08-17T10:27:54.335Z,98015.19
2022-08-17T10:30:26.750Z,98021.09
2022-08-17T10:32:59.207Z,98026.50
2022-08-17T10:35:50.471Z,98025.00
2022-08-17T10:38:32.008Z,98027.22
2022-08-17T10:41:16.857Z,98023.63
2022-08-17T10:44:40.516Z,98026.09
2022-08-17T10:47:18.097Z,98041.03
2022-08-17T10:49:53.724Z,98044.56
2022-08-17T10:52:20.402Z,98044.22
2022-08-17T10:54:51.333Z,98047.19
2022-08-17T10:57:40.877Z,98052.75
2022-08-17T11:00:15.167Z,98057.69
2022-08-17T11:02:51.792Z,98056.03
2022-08-17T11:05:18.309Z,98063.09
2022-08-17T11:07:59.772Z,98054.22
2022-08-17T11:10:52.129Z,98040.22
2022-08-17T11:13:44.784Z,98021.44
2022-08-17T11:16:47.863Z,98028.56
2022-08-17T11:19:41.059Z,98044.28
2022-08-17T11:22:29.965Z,98044.06
2022-08-17T11:25:15.033Z,98038.06
2022-08-17T11:27:43.945Z,98040.97
2022-08-17T11:30:12.086Z,98052.97
2022-08-17T11:32:52.897Z,98051.13
2022-08-17T11:35:21.309Z,98044.56
2022-08-17T11:37:58.961Z,98046.97
2022-08-17T11:40:38.541Z,98048.75
2022-08-17T11:43:23.475Z,98053.09
2022-08-17T11:46:14.675Z,98062.31
2022-08-17T11:49:05.909Z,98059.28
2022-08-17T11:52:05.160Z,98065.78
2022-08-17T11:54:42.852Z,98054.88
2022-08-17T11:57:41.791Z,98053.41
2022-08-17T12:01:00.843Z,98047.06
2022-08-17T12:03:39.139Z,98068.19
2022-08-17T12:06:17.496Z,98066.13
2022-08-17T12:08:51.606Z,98055.31
2022-08-17T12:12:10.988Z,98069.00
2022-08-17T12:14:51.651Z,98059.63
2022-08-17T12:17:40.576Z,98055.50
2022-08-17T12:20:21.403Z,98058.03
2022-08-17T12:23:01.129Z,98050.81
2022-08-17T12:25:38.991Z,98054.75
2022-08-17T12:28:20.636Z,98050.66
2022-08-17T12:30:52.173Z,98039.28
2022-08-17T12:33:25.740Z,98043.22
2022-08-17T12:36:00.621Z,98044.41
2022-08-17T12:38:32.962Z,98039.84
2022-08-17T12:41:21.482Z,98044.25
2022-08-17T12:43:58.574Z,98046.50
2022-08-17T12:46:25.008Z,98036.72
2022-08-17T12:48:58.788Z,98043.88
2022-08-17T12:51:28.802Z,98030.47
2022-08-17T12:53:55.548Z,98025.53
2022-08-17T12:56:21.991Z,98024.44
2022-08-17T12:58:53.982Z,98027.97
2022-08-17T13:01:21.069Z,98017.84
2022-08-17T13:03:53.479Z,98006.19
2022-08-17T13:06:36.094Z,98017.88
2022-08-17T13:09:40.415Z,98006.38
2022-08-17T13:12:08.224Z,98009.34
2022-08-17T13:14:35.280Z,98008.25
2022-08-17T13:17:08.584Z,98005.53
2022-08-17T13:19:48.476Z,97995.06
2022-08-17T13:22:15.087Z,98007.44
2022-08-17T13:24:53.054Z,97999.72
2022-08-17T13:27:21.609Z,97996.88
2022-08-17T13:29:53.173Z,98003.41
2022-08-17T13:32:34.079Z,98003.00
2022-08-17T13:35:14.139Z,98005.66
2022-08-17T13:37:57.692Z,97997.41
2022-08-17T13:40:32.135Z,97995.84
2022-08-17T13:42:59.059Z,97990.66
2022-08-17T13:45:35.285Z,97977.53
2022-08-17T13:48:08.511Z,97976.56
2022-08-17T13:51:05.178Z,97978.94
2022-08-17T13:53:37.317Z,97973.91
2022-08-17T13:56:37.000Z,97983.56
2022-08-17T13:59:07.985Z,97984.00
2022-08-17T14:01:34.640Z,97974.97
2022-08-17T14:04:04.751Z,97973.25
2022-08-17T14:06:52.920Z,97981.75
2022-08-17T14:09:24.015Z,97961.19
2022-08-17T14:11:51.777Z,97974.91
2022-08-17T14:14:18.638Z,97971.56
2022-08-17T14:16:45.264Z,97969.59
2022-08-17T14:19:13.412Z,97968.00
2022-08-17T14:21:42.868Z,97973.19
2022-08-17T14:24:16.903Z,97950.94
2022-08-17T14:26:44.850Z,97943.59
2022-08-17T14:29:12.683Z,97937.00
2022-08-17T14:31:42.128Z,97940.53
2022-08-17T14:34:12.545Z,97939.63
2022-08-17T14:36:41.831Z,97932.41
2022-08-17T14:39:15.680Z,97939.66
2022-08-17T14:41:42.676Z,97938.16
2022-08-17T14:44:13.123Z,97939.91
2022-08-17T14:46:41.187Z,97926.16
2022-08-17T14:49:10.139Z,97925.03
2022-08-17T14:51:44.191Z,97924.41
2022-08-17T14:54:33.353Z,97922.81
2022-08-17T14:57:04.625Z,97923.66
2022-08-17T14:59:46.812Z,97910.06
2022-08-17T15:02:13.595Z,97931.72
2022-08-17T15:04:45.367Z,97907.75
2022-08-17T15:07:12.307Z,97917.69
2022-08-17T15:09:39.021Z,97915.34
2022-08-17T15:12:06.643Z,97915.22
2022-08-17T15:14:35.493Z,97921.38
2022-08-17T15:17:05.589Z,97910.94
2022-08-17T15:19:32.093Z,97916.56
2022-08-17T15:21:58.646Z,97913.38
2022-08-17T15:24:25.089Z,97914.25
2022-08-17T15:26:51.571Z,97910.13
2022-08-17T15:29:18.068Z,97914.06
2022-08-17T15:31:44.626Z,97907.03
2022-08-17T15:34:11.165Z,97902.88
2022-08-17T15:36:37.766Z,97913.63
2022-08-17T15:39:07.850Z,97900.53
2022-08-17T15:41:34.584Z,97902.81
2022-08-17T15:44:01.097Z,97898.44
2022-08-17T15:46:27.609Z,97898.91
2022-08-17T15:48:58.223Z,97901.78
2022-08-17T15:51:31.673Z,97911.94
2022-08-17T15:54:04.393Z,97908.69
2022-08-17T15:56:46.075Z,97909.13
2022-08-17T15:59:12.545Z,97898.75
2022-08-17T16:03:06.184Z,97895.69
2022-08-17T16:04:28.426Z,97888.94
2022-08-17T16:06:58.069Z,97901.63
2022-08-17T16:09:24.540Z,97891.47
2022-08-17T16:11:53.678Z,97884.59
2022-08-17T16:14:22.380Z,97894.50
2022-08-17T16:16:50.497Z,97890.09
2022-08-17T16:19:16.979Z,97901.63
2022-08-17T16:21:43.511Z,97896.06
2022-08-17T16:24:12.885Z,97893.41
2022-08-17T16:26:40.571Z,97905.75
2022-08-17T16:29:08.458Z,97909.63
2022-08-17T16:31:37.481Z,97896.16
2022-08-17T16:34:17.671Z,97883.03
2022-08-17T16:36:54.978Z,97878.88
2022-08-17T16:39:25.385Z,97875.31
2022-08-17T16:41:51.842Z,97878.38
2022-08-17T16:44:21.254Z,97885.50
2022-08-17T16:46:48.672Z,97884.63
2022-08-17T16:49:29.648Z,97886.00
2022-08-17T16:52:03.910Z,97890.44
2022-08-17T16:54:30.626Z,97895.16
2022-08-17T16:56:57.202Z,97895.91
2022-08-17T16:59:39.411Z,97889.03
2022-08-17T17:02:12.349Z,97897.25
2022-08-17T17:04:51.611Z,97898.94
2022-08-17T17:07:20.661Z,97901.09
2022-08-17T17:09:52.612Z,97902.41
2022-08-17T17:12:19.194Z,97901.75
2022-08-17T17:15:01.655Z,97907.91
2022-08-17T17:17:37.462Z,97911.50
2022-08-17T17:20:16.014Z,97905.72
2022-08-17T17:23:00.389Z,97910.75
2022-08-17T17:25:36.494Z,97907.97
2022-08-17T17:28:10.853Z,97905.47
2022-08-17T17:30:49.355Z,97892.94
2022-08-17T17:33:23.571Z,97901.16
2022-08-17T17:36:08.065Z,97888.84
2022-08-17T17:38:42.914Z,97891.03
2022-08-17T17:41:25.323Z,97891.31
2022-08-17T17:44:01.879Z,97890.50
2022-08-17T17:46:37.966Z,97893.22
2022-08-17T17:49:05.954Z,97888.03
2022-08-17T17:52:07.716Z,97882.28
2022-08-17T17:54:33.650Z,97894.28
2022-08-17T17:57:07.130Z,97891.31
2022-08-17T18:00:15.020Z,97886.94
2022-08-17T18:02:53.193Z,97897.03
2022-08-17T18:05:31.934Z,97897.59
2022-08-17T18:08:32.200Z,97903.03
2022-08-17T18:11:07.867Z,97897.31
2022-08-17T18:13:56.263Z,97886.91
2022-08-17T18:16:23.360Z,97883.56
2022-08-17T18:18:52.407Z,97898.63
2022-08-17T18:21:27.470Z,97890.66
2022-08-17T18:23:59.555Z,97902.97
2022-08-17T18:26:55.324Z,97898.78
2022-08-17T18:29:27.532Z,97906.13
2022-08-17T18:32:17.916Z,97908.31
2022-08-17T18:34:48.601Z,97912.59
2022-08-17T18:37:31.802Z,97919.88
2022-08-17T18:39:58.584Z,97914.91
2022-08-17T18:42:27.974Z,97913.38
2022-08-17T18:44:55.663Z,97909.91
2022-08-17T18:47:28.744Z,97913.16
2022-08-17T18:49:58.768Z,97909.03
2022-08-17T18:52:32.720Z,97907.63
2022-08-17T18:55:20.665Z,97916.19
2022-08-17T18:58:12.604Z,97915.59
2022-08-17T19:00:42.529Z,97926.94
2022-08-17T19:03:18.029Z,97920.06
2022-08-17T19:05:54.871Z,97933.22
2022-08-17T19:08:32.867Z,97927.66
2022-08-17T19:11:10.094Z,97937.53
2022-08-17T19:13:41.481Z,97947.69
2022-08-17T19:16:12.300Z,97947.53
2022-08-17T19:18:51.997Z,97959.81
2022-08-17T19:21:23.988Z,97966.25
2022-08-17T19:23:53.783Z,97964.22
2022-08-17T19:26:54.283Z,97960.09
2022-08-17T19:29:34.631Z,97968.84
2022-08-17T19:32:01.599Z,97968.75
2022-08-17T19:34:33.930Z,97974.44
2022-08-17T19:37:08.734Z,97971.94
2022-08-17T19:40:02.815Z,97977.28
2022-08-17T19:42:49.641Z,97973.22
2022-08-17T19:45:25.863Z,97973.03
2022-08-17T19:48:12.387Z,97978.09
2022-08-17T19:50:57.619Z,97979.91
2022-08-17T19:54:03.728Z,97982.53
2022-08-17T19:56:43.499Z,97988.47
2022-08-17T19:59:48.645Z,97995.44
2022-08-17T20:02:37.644Z,98003.56
2022-08-17T20:05:19.879Z,98001.34
2022-08-17T20:07:51.396Z,98004.50
2022-08-17T20:10:38.233Z,97997.81
2022-08-17T20:13:11.157Z,97989.53
2022-08-17T20:15:42.439Z,97994.09
2022-08-17T20:18:47.473Z,97990.88
2022-08-17T20:21:20.210Z,97995.13
2022-08-17T20:23:56.187Z,97992.50
2022-08-17T20:26:28.324Z,97995.53
2022-08-17T20:29:08.938Z,98004.50
2022-08-17T20:31:51.791Z,98006.38
2022-08-17T20:34:31.050Z,98011.41
2022-08-17T20:37:04.226Z,98002.66
2022-08-17T20:39:38.649Z,97997.78
2022-08-17T20:42:29.967Z,98000.97
2022-08-17T20:45:05.348Z,98005.84
2022-08-17T20:47:55.141Z,98013.16
2022-08-17T20:50:37.800Z,97999.94
2022-08-17T20:53:08.539Z,98005.69
2022-08-17T20:55:51.990Z,98002.25
2022-08-17T20:58:25.234Z,97997.97
2022-08-17T21:00:57.455Z,97990.09
2022-08-17T21:03:24.083Z,98003.16
2022-08-17T21:06:14.416Z,97994.88
2022-08-17T21:09:13.046Z,98006.84
2022-08-17T21:11:56.989Z,98010.66
2022-08-17T21:14:40.997Z,98010.59
2022-08-17T21:17:33.713Z,98007.31
2022-08-17T21:20:12.681Z,98017.66
2022-08-17T21:22:53.365Z,98036.16
2022-08-17T21:25:32.405Z,98045.69
2022-08-17T21:28:20.358Z,98047.34
2022-08-17T21:30:59.156Z,98046.91
2022-08-17T21:33:31.430Z,98042.53
2022-08-17T21:36:00.618Z,98046.13
2022-08-17T21:38:35.356Z,98042.91
2022-08-17T21:41:01.977Z,98048.47
2022-08-17T21:43:35.196Z,98051.53
2022-08-17T21:46:06.724Z,98052.34
2022-08-17T21:48:43.832Z,98059.06
2022-08-17T21:51:19.349Z,98070.84
2022-08-17T21:53:52.693Z,98067.13
2022-08-17T21:56:26.059Z,98066.03
2022-08-17T21:59:19.393Z,98064.50
2022-08-17T22:01:57.601Z,98065.22
2022-08-17T22:04:41.566Z,98064.00
2022-08-17T22:07:11.535Z,98057.75
2022-08-17T22:09:46.895Z,98051.50
2022-08-17T22:12:22.086Z,98061.31
2022-08-17T22:15:01.581Z,98068.94
2022-08-17T22:17:29.396Z,98070.19
2022-08-17T22:20:00.458Z,98061.66
2022-08-17T22:23:08.849Z,98069.53
2022-08-17T22:25:38.870Z,98068.66
2022-08-17T22:28:08.737Z,98068.41
2022-08-17T22:30:58.057Z,98064.47
2022-08-17T22:33:43.613Z,98067.19
2022-08-17T22:36:26.208Z,98070.75
2022-08-17T22:38:55.788Z,98064.53
2022-08-17T22:41:57.127Z,98064.19
2022-08-17T22:44:30.048Z,98063.19
2022-08-17T22:47:00.493Z,98065.88
2022-08-17T22:49:34.149Z,98082.47
2022-08-17T22:52:11.220Z,98078.31
2022-08-17T22:54:56.058Z,98083.72
2022-08-17T22:57:42.882Z,98089.72
2022-08-17T23:00:31.783Z,98094.91
2022-08-17T23:03:28.111Z,98092.19
2022-08-17T23:06:10.572Z,98093.16
2022-08-17T23:08:49.565Z,98088.38
2022-08-17T23:11:16.265Z,98089.34
2022-08-17T23:13:42.921Z,98090.16
2022-08-17T23:16:09.470Z,98088.25
2022-08-17T23:18:36.315Z,98088.06
2022-08-17T23:21:03.224Z,98094.63
2022-08-17T23:23:29.723Z,98093.75
2022-08-17T23:25:56.160Z,98085.66
2022-08-17T23:28:22.609Z,98079.84
2022-08-17T23:30:49.102Z,98083.41
2022-08-17T23:33:26.461Z,98088.03
2022-08-17T23:35:53.925Z,98094.00
2022-08-17T23:38:20.502Z,98095.72
2022-08-17T23:40:46.950Z,98103.38
2022-08-17T23:43:23.665Z,98098.97
2022-08-17T23:45:53.682Z,98096.16
2022-08-17T23:48:35.346Z,98093.03
2022-08-17T23:51:04.623Z,98082.03
2022-08-17T23:53:34.457Z,98088.91
2022-08-17T23:56:06.968Z,98094.50
2022-08-17T23:58:38.341Z,98103.50
